Time;durP1;ratioP1;P1;durP2;ratioP2;P2;SDS_P1;SDS_P2;PMS_P1;PMS_P2;Temp;Humidity;BMP_temperature;BMP_pressure;BME280_temperature;BME280_humidity;BME280_pressure;Samples;Min_cycle;Max_cycle;Signal;HPM_P1;HPM_P2
2021/03/25 00:00:54;;;;;;;;;;;;;;;2.57;60.97;100514.69;1647561;87;20336;-55
2021/03/25 00:04:00;;;;;;;;;;;;;;;2.56;60.61;100516.16;1660804;86;20207;-53
2021/03/25 00:07:04;;;;;;;;;;;;;;;2.54;60.42;100506.83;1674242;83;20218;-54
2021/03/25 00:10:14;;;;;;;;;;;;;;;2.55;60.24;100509.88;1710475;83;20562;-55
2021/03/25 00:13:20;;;;;;;;;;;;;;;2.42;60.18;100505.59;1710502;84;20254;-54
2021/03/25 00:16:24;;;;;;;;;;;;;;;2.44;60.41;100512.58;1710366;84;20243;-54
2021/03/25 00:19:28;;;;;;;;;;;;;;;2.40;60.50;100508.89;1710543;84;20198;-54
2021/03/25 00:22:32;;;;;;;;;;;;;;;2.30;60.97;100497.95;1710594;84;20242;-53
2021/03/25 00:25:39;;;;;;;;;;;;;;;2.21;61.29;100500.05;1710547;84;20245;-54
2021/03/25 00:28:43;;;;;;;;;;;;;;;2.09;61.64;100490.69;1710336;84;20241;-55
2021/03/25 00:31:49;;;;;;;;;;;;;;;2.05;62.12;100502.69;1710535;84;20245;-54
2021/03/25 00:34:54;;;;;;;;;;;;;;;2.04;61.88;100477.56;1710386;84;20307;-54
2021/03/25 00:38:00;;;;;;;;;;;;;;;2.04;61.97;100481.61;1710424;84;20210;-54
2021/03/25 00:41:08;;;;;;;;;;;;;;;2.16;61.67;100482.47;1710552;84;20190;-54
2021/03/25 00:44:17;;;;;;;;;;;;;;;2.20;61.33;100473.16;1710540;84;20202;-54
2021/03/25 00:47:21;;;;;;;;;;;;;;;2.23;61.26;100473.78;1710528;84;20213;-54
2021/03/25 00:50:36;;;;;;;;;;;;;;;2.25;61.17;100475.84;1710465;84;20187;-54
2021/03/25 00:53:42;;;;;;;;;;;;;;;2.29;61.02;100469.72;1710498;84;20245;-55
2021/03/25 00:56:45;;;;;;;;;;;;;;;2.35;60.50;100470.58;1710529;84;20501;-55
2021/03/25 00:59:48;;;;;;;;;;;;;;;2.35;60.27;100460.64;1710366;84;20241;-54
2021/03/25 01:02:52;;;;;;;;;;;;;;;2.41;60.19;100464.72;1710260;84;20575;-54
2021/03/25 01:05:58;;;;;;;;;;;;;;;2.44;59.71;100463.12;1710540;84;20530;-54
2021/03/25 01:09:03;;;;;;;;;;;;;;;2.43;59.62;100465.42;1721094;82;20313;-54
2021/03/25 01:12:07;;;;;;;;;;;;;;;2.36;59.52;100443.45;1721186;83;20284;-55
2021/03/25 01:15:14;;;;;;;;;;;;;;;2.29;59.51;100454.87;1721137;83;20305;-55
2021/03/25 01:18:19;;;;;;;;;;;;;;;2.25;59.64;100452.06;1705104;83;20198;-54
2021/03/25 01:21:24;;;;;;;;;;;;;;;2.19;59.76;100454.73;1726059;83;20324;-54
2021/03/25 01:24:29;;;;;;;;;;;;;;;2.21;59.99;100455.97;1726033;83;20209;-54
2021/03/25 01:27:34;;;;;;;;;;;;;;;2.13;60.00;100457.06;1725990;83;20277;-54
2021/03/25 01:30:39;;;;;;;;;;;;;;;2.13;60.06;100456.58;1726029;83;20321;-54
2021/03/25 01:33:44;;;;;;;;;;;;;;;2.12;60.23;100459.41;1726151;83;20205;-54
2021/03/25 01:36:49;;;;;;;;;;;;;;;2.17;60.28;100448.59;1725968;83;20288;-54
2021/03/25 01:39:57;;;;;;;;;;;;;;;2.21;60.08;100464.94;1721117;83;20206;-54
2021/03/25 01:43:23;;;;;;;;;;;;;;;2.17;59.88;100459.39;1720997;83;20305;-55
2021/03/25 01:46:38;;;;;;;;;;;;;;;2.08;60.04;100451.19;1726044;83;20209;-54
2021/03/25 01:49:41;;;;;;;;;;;;;;;2.12;60.37;100452.66;1721132;83;20313;-55
2021/03/25 01:52:49;;;;;;;;;;;;;;;2.20;60.26;100450.20;1726082;83;20281;-54
2021/03/25 01:56:04;;;;;;;;;;;;;;;2.22;60.11;100445.55;1721035;83;20205;-54
2021/03/25 01:59:24;;;;;;;;;;;;;;;2.24;60.11;100442.22;1721182;83;20645;-54
2021/03/25 02:02:41;;;;;;;;;;;;;;;2.19;59.84;100444.45;1721120;82;20867;-54
2021/03/25 02:06:02;;;;;;;;;;;;;;;2.21;60.01;100439.77;1726019;83;20625;-55
2021/03/25 02:09:27;;;;;;;;;;;;;;;2.19;59.93;100426.90;1716734;79;20210;-55
2021/03/25 02:13:03;;;;;;;;;;;;;;;2.20;60.01;100433.53;1679808;84;20322;-54
2021/03/25 02:16:11;;;;;;;;;;;;;;;2.25;60.00;100442.61;1672244;84;20535;-54
2021/03/25 02:19:47;;;;;;;;;;;;;;;2.24;59.99;100442.22;1673780;84;20299;-54
2021/03/25 02:23:18;;;;;;;;;;;;;;;2.25;59.98;100435.34;1648057;86;20308;-54
2021/03/25 02:26:28;;;;;;;;;;;;;;;2.23;60.05;100438.68;1661338;86;20259;-55
2021/03/25 02:29:48;;;;;;;;;;;;;;;2.29;59.98;100435.48;1660684;85;20278;-54
2021/03/25 02:33:03;;;;;;;;;;;;;;;2.26;60.00;100434.38;1659108;86;20294;-53
2021/03/25 02:36:12;;;;;;;;;;;;;;;2.30;60.09;100443.11;1666142;85;20294;-55
2021/03/25 02:39:20;;;;;;;;;;;;;;;2.23;60.14;100435.11;1628931;87;20336;-54
2021/03/25 02:42:30;;;;;;;;;;;;;;;2.25;60.21;100442.61;1661126;86;20254;-54
2021/03/25 02:45:40;;;;;;;;;;;;;;;2.18;60.10;100437.31;1708027;83;20214;-54
2021/03/25 02:48:47;;;;;;;;;;;;;;;2.13;60.30;100434.11;1648537;86;20297;-54
2021/03/25 02:52:11;;;;;;;;;;;;;;;2.12;60.45;100431.05;1648938;87;20276;-54
2021/03/25 02:55:19;;;;;;;;;;;;;;;2.13;60.66;100442.20;1661853;85;20558;-55
2021/03/25 02:58:27;;;;;;;;;;;;;;;2.20;60.89;100435.36;1661148;84;20314;-54
2021/03/25 03:01:31;;;;;;;;;;;;;;;2.19;60.92;100443.09;1648203;84;20297;-54
2021/03/25 03:04:38;;;;;;;;;;;;;;;2.23;60.85;100437.81;1661295;86;20241;-54
2021/03/25 03:07:53;;;;;;;;;;;;;;;2.27;60.96;100436.56;1669075;84;20229;-54
2021/03/25 03:11:06;;;;;;;;;;;;;;;2.29;60.60;100441.36;1647377;85;20320;-53
2021/03/25 03:14:15;;;;;;;;;;;;;;;2.25;60.69;100438.55;1661556;85;20202;-54
2021/03/25 03:17:22;;;;;;;;;;;;;;;2.26;60.72;100437.08;1668997;84;20263;-54
2021/03/25 03:20:37;;;;;;;;;;;;;;;2.31;60.82;100445.68;1646661;86;20281;-54
2021/03/25 03:23:44;;;;;;;;;;;;;;;2.33;60.77;100444.20;1662199;85;20202;-54
2021/03/25 03:27:02;;;;;;;;;;;;;;;2.32;60.73;100442.47;1709890;82;20282;-53
2021/03/25 03:30:10;;;;;;;;;;;;;;;2.36;60.88;100454.77;1648456;86;20257;-54
2021/03/25 03:33:34;;;;;;;;;;;;;;;2.40;60.86;100454.88;1662092;85;20539;-54
2021/03/25 03:36:38;;;;;;;;;;;;;;;2.43;60.91;100451.92;1648759;85;20312;-53
2021/03/25 03:39:43;;;;;;;;;;;;;;;2.51;60.88;100450.81;1661514;86;20209;-54
2021/03/25 03:42:51;;;;;;;;;;;;;;;2.50;60.72;100456.73;1708722;83;20190;-54
2021/03/25 03:46:04;;;;;;;;;;;;;;;2.49;60.61;100455.00;1661431;85;20562;-56
2021/03/25 03:49:15;;;;;;;;;;;;;;;2.41;60.96;100459.31;1659970;84;20282;-54
2021/03/25 03:52:30;;;;;;;;;;;;;;;2.48;61.13;100456.47;1659978;85;20310;-54
2021/03/25 03:55:33;;;;;;;;;;;;;;;2.52;61.05;100450.69;1660053;85;20206;-54
2021/03/25 03:58:44;;;;;;;;;;;;;;;2.51;61.19;100451.69;1647709;86;20457;-54
2021/03/25 04:01:55;;;;;;;;;;;;;;;2.42;61.32;100453.78;1661175;86;20214;-55
2021/03/25 04:05:12;;;;;;;;;;;;;;;2.41;61.61;100452.56;1647443;86;20304;-55
2021/03/25 04:08:50;;;;;;;;;;;;;;;2.46;61.76;100457.08;1661094;86;20214;-54
2021/03/25 04:12:01;;;;;;;;;;;;;;;2.45;61.64;100455.37;1661153;83;20218;-54
2021/03/25 04:15:12;;;;;;;;;;;;;;;2.56;61.98;100455.36;1679325;85;20258;-54
2021/03/25 04:18:27;;;;;;;;;;;;;;;2.71;61.75;100455.49;1715887;83;20281;-55
2021/03/25 04:21:46;;;;;;;;;;;;;;;2.78;61.40;100460.75;1716198;83;20562;-55
2021/03/25 04:25:02;;;;;;;;;;;;;;;2.70;61.43;100456.45;1715820;83;20249;-55
2021/03/25 04:28:15;;;;;;;;;;;;;;;2.71;61.50;100462.25;1716027;83;20285;-54
2021/03/25 04:31:21;;;;;;;;;;;;;;;2.68;61.67;100457.09;1715889;83;20274;-55
2021/03/25 04:34:24;;;;;;;;;;;;;;;2.73;61.72;100457.55;1715892;83;20301;-54
2021/03/25 04:37:29;;;;;;;;;;;;;;;2.74;61.59;100462.00;1715929;83;20312;-54
2021/03/25 04:40:36;;;;;;;;;;;;;;;2.73;61.68;100463.83;1715931;83;20302;-54
2021/03/25 04:43:40;;;;;;;;;;;;;;;2.82;61.67;100466.29;1715910;83;20309;-54
2021/03/25 04:47:05;;;;;;;;;;;;;;;2.90;61.42;100457.91;1715817;83;20202;-55
2021/03/25 04:50:16;;;;;;;;;;;;;;;2.88;61.35;100465.30;1715995;83;20281;-55
2021/03/25 04:53:35;;;;;;;;;;;;;;;2.93;61.27;100474.38;1715924;83;20277;-54
2021/03/25 04:56:39;;;;;;;;;;;;;;;2.87;61.38;100468.13;1716074;83;20300;-55
2021/03/25 04:59:43;;;;;;;;;;;;;;;2.85;61.42;100472.80;1697051;83;20238;-55
2021/03/25 05:02:47;;;;;;;;;;;;;;;2.87;61.57;100472.19;1715982;83;20255;-55
2021/03/25 05:05:53;;;;;;;;;;;;;;;2.85;61.57;100466.88;1716132;83;20198;-54
2021/03/25 05:08:57;;;;;;;;;;;;;;;2.78;61.69;100459.39;1716029;83;20312;-54
2021/03/25 05:12:02;;;;;;;;;;;;;;;2.77;61.81;100463.97;1719069;81;20573;-54
2021/03/25 05:15:14;;;;;;;;;;;;;;;2.82;61.85;100475.75;1721150;83;20261;-54
2021/03/25 05:18:22;;;;;;;;;;;;;;;2.87;61.81;100474.89;1726333;83;20432;-54
2021/03/25 05:21:31;;;;;;;;;;;;;;;2.88;61.64;100479.30;1720931;83;20929;-54
2021/03/25 05:24:52;;;;;;;;;;;;;;;2.90;61.71;100480.05;1726194;83;20316;-55
2021/03/25 05:27:59;;;;;;;;;;;;;;;2.91;61.83;100478.56;1721009;83;20210;-54
2021/03/25 05:31:04;;;;;;;;;;;;;;;2.94;61.65;100476.09;1726536;82;20495;-55
2021/03/25 05:34:10;;;;;;;;;;;;;;;2.91;61.60;100484.45;1725870;83;20378;-54
2021/03/25 05:37:17;;;;;;;;;;;;;;;2.94;61.45;100472.03;1747538;81;20514;-55
2021/03/25 05:40:36;;;;;;;;;;;;;;;2.99;61.44;100481.98;1750186;81;20571;-56
2021/03/25 05:43:50;;;;;;;;;;;;;;;3.06;61.35;100485.41;1755757;82;20579;-55
2021/03/25 05:47:03;;;;;;;;;;;;;;;3.17;61.37;100490.44;1755899;82;20247;-55
2021/03/25 05:50:32;;;;;;;;;;;;;;;3.33;61.01;100494.43;1750347;82;20199;-55
2021/03/25 05:53:48;;;;;;;;;;;;;;;3.30;60.45;100497.39;1749732;82;20199;-56
2021/03/25 05:57:09;;;;;;;;;;;;;;;3.30;60.62;100501.45;1725836;83;20249;-55
2021/03/25 06:00:19;;;;;;;;;;;;;;;3.39;60.47;100506.13;1757512;80;20274;-56
2021/03/25 06:03:26;;;;;;;;;;;;;;;3.44;60.35;100505.22;1742427;82;20244;-56
2021/03/25 06:06:51;;;;;;;;;;;;;;;3.60;60.31;100507.53;1720588;83;20206;-56
2021/03/25 06:10:06;;;;;;;;;;;;;;;3.67;59.55;100500.11;1756224;81;20213;-55
2021/03/25 06:13:25;;;;;;;;;;;;;;;3.63;59.53;100509.97;1753329;78;20697;-55
2021/03/25 06:16:42;;;;;;;;;;;;;;;3.69;59.65;100510.31;1752688;79;20204;-56
2021/03/25 06:20:15;;;;;;;;;;;;;;;3.74;59.18;100515.34;1752238;79;20272;-54
2021/03/25 06:23:27;;;;;;;;;;;;;;;3.73;59.11;100519.02;1732611;82;20209;-59
2021/03/25 06:26:51;;;;;;;;;;;;;;;3.76;59.15;100513.38;1739067;82;20225;-56
2021/03/25 06:30:00;;;;;;;;;;;;;;;3.81;59.03;100511.98;1739990;82;20292;-56
2021/03/25 06:33:09;;;;;;;;;;;;;;;3.70;58.95;100512.03;1744433;81;20211;-56
2021/03/25 06:36:20;;;;;;;;;;;;;;;3.65;59.04;100520.15;1745176;82;20252;-56
2021/03/25 06:39:46;;;;;;;;;;;;;;;3.70;59.30;100513.86;1745253;82;20239;-56
2021/03/25 06:42:59;;;;;;;;;;;;;;;3.94;59.32;100518.08;1745156;82;20200;-56
2021/03/25 06:46:11;;;;;;;;;;;;;;;4.00;58.66;100522.09;1727473;82;20215;-55
2021/03/25 06:49:32;;;;;;;;;;;;;;;3.97;58.55;100525.06;1745229;82;20234;-54
2021/03/25 06:52:42;;;;;;;;;;;;;;;3.97;58.56;100515.10;1745727;82;20507;-54
2021/03/25 06:55:47;;;;;;;;;;;;;;;3.93;58.75;100529.04;1745328;82;20215;-55
2021/03/25 06:58:57;;;;;;;;;;;;;;;4.03;59.07;100532.66;1745372;82;20237;-55
2021/03/25 07:02:05;;;;;;;;;;;;;;;4.23;59.08;100529.96;1745308;82;20207;-55
2021/03/25 07:05:10;;;;;;;;;;;;;;;4.36;58.37;100531.15;1745545;81;20210;-55
2021/03/25 07:08:31;;;;;;;;;;;;;;;4.33;58.25;100532.25;1744689;82;20211;-56
2021/03/25 07:11:42;;;;;;;;;;;;;;;4.32;58.16;100544.58;1738227;82;20220;-55
2021/03/25 07:14:51;;;;;;;;;;;;;;;4.18;58.43;100544.42;1721690;81;20249;-55
2021/03/25 07:17:58;;;;;;;;;;;;;;;4.12;58.91;100544.92;1740595;82;20288;-55
2021/03/25 07:21:23;;;;;;;;;;;;;;;4.16;59.16;100546.88;1719212;82;20843;-56
2021/03/25 07:24:36;;;;;;;;;;;;;;;4.31;59.23;100549.13;1712920;82;20274;-55
2021/03/25 07:27:42;;;;;;;;;;;;;;;4.53;59.25;100545.44;1711092;84;20254;-55
2021/03/25 07:30:54;;;;;;;;;;;;;;;4.68;58.57;100551.38;1711460;82;20642;-54
2021/03/25 07:34:00;;;;;;;;;;;;;;;4.59;58.02;100552.55;1711403;84;20223;-60
2021/03/25 07:37:06;;;;;;;;;;;;;;;4.53;58.28;100556.28;1711521;84;20255;-60
2021/03/25 07:40:13;;;;;;;;;;;;;;;4.52;58.46;100551.34;1711166;83;20385;-60
2021/03/25 07:43:29;;;;;;;;;;;;;;;4.49;58.56;100560.23;1710975;83;20336;-59
2021/03/25 07:46:53;;;;;;;;;;;;;;;4.46;58.57;100549.17;1705826;83;20257;-59
2021/03/25 07:49:59;;;;;;;;;;;;;;;4.48;58.90;100562.11;1683094;85;20559;-61
2021/03/25 07:53:04;;;;;;;;;;;;;;;4.56;58.78;100552.81;1706155;84;20208;-59
2021/03/25 07:56:20;;;;;;;;;;;;;;;4.59;58.72;100562.03;1711190;84;20226;-60
2021/03/25 07:59:46;;;;;;;;;;;;;;;4.56;58.67;100555.53;1711123;83;20288;-59
2021/03/25 08:02:52;;;;;;;;;;;;;;;4.51;58.84;100566.39;1706296;84;20545;-58
2021/03/25 08:05:58;;;;;;;;;;;;;;;4.63;59.07;100564.83;1709563;82;20208;-60
2021/03/25 08:09:14;;;;;;;;;;;;;;;4.81;58.75;100559.64;1709485;83;20219;-60
2021/03/25 08:12:27;;;;;;;;;;;;;;;4.80;58.44;100565.20;1710419;83;20211;-59
2021/03/25 08:15:44;;;;;;;;;;;;;;;4.79;58.44;100570.28;1733441;80;20596;-59
2021/03/25 08:19:03;;;;;;;;;;;;;;;4.80;58.69;100571.98;1742036;81;20633;-58
2021/03/25 08:22:47;;;;;;;;;;;;;;;4.84;58.67;100568.86;1742374;82;20210;-55
2021/03/25 08:25:53;;;;;;;;;;;;;;;4.95;58.65;100570.65;1686940;84;20252;-54
2021/03/25 08:29:04;;;;;;;;;;;;;;;5.15;58.48;100573.30;1667370;85;20250;-54
2021/03/25 08:32:20;;;;;;;;;;;;;;;5.34;58.23;100577.45;1648442;85;20311;-54
2021/03/25 08:35:39;;;;;;;;;;;;;;;5.50;57.80;100580.98;1706918;82;20230;-53
2021/03/25 08:39:05;;;;;;;;;;;;;;;5.70;57.57;100581.38;1709536;82;20202;-55
2021/03/25 08:42:14;;;;;;;;;;;;;;;5.87;56.82;100578.00;1681827;84;20233;-55
2021/03/25 08:45:35;;;;;;;;;;;;;;;5.89;56.40;100586.39;1658387;85;20226;-54
2021/03/25 08:49:06;;;;;;;;;;;;;;;6.00;56.39;100589.46;1702478;83;20280;-54
2021/03/25 08:52:13;;;;;;;;;;;;;;;6.03;56.05;100592.77;1701175;84;20657;-54
2021/03/25 08:55:44;;;;;;;;;;;;;;;6.10;55.99;100591.17;1700463;84;20853;-54
2021/03/25 08:58:49;;;;;;;;;;;;;;;6.17;55.47;100591.98;1705062;83;20260;-53
2021/03/25 09:02:02;;;;;;;;;;;;;;;6.14;55.44;100591.75;1703403;83;20227;-54
2021/03/25 09:05:20;;;;;;;;;;;;;;;6.18;55.55;100587.77;1701280;83;20220;-54
2021/03/25 09:08:26;;;;;;;;;;;;;;;6.25;55.82;100590.78;1705877;82;20220;-53
2021/03/25 09:11:30;;;;;;;;;;;;;;;6.35;55.88;100591.12;1704869;82;20263;-54
2021/03/25 09:14:34;;;;;;;;;;;;;;;6.23;55.23;100585.48;1699513;83;20268;-54
2021/03/25 09:17:49;;;;;;;;;;;;;;;6.01;55.39;100589.81;1731419;82;20546;-55
2021/03/25 09:20:57;;;;;;;;;;;;;;;5.87;56.01;100580.23;1709804;82;20283;-54
2021/03/25 09:24:13;;;;;;;;;;;;;;;5.96;56.46;100585.33;1694941;82;20220;-54
2021/03/25 09:27:20;;;;;;;;;;;;;;;6.08;56.31;100580.97;1655067;84;20600;-53
2021/03/25 09:30:30;;;;;;;;;;;;;;;6.21;56.17;100585.25;1705259;83;20214;-56
2021/03/25 09:33:54;;;;;;;;;;;;;;;6.45;55.93;100579.74;1678231;85;20218;-55
2021/03/25 09:37:09;;;;;;;;;;;;;;;6.60;55.09;100579.63;1697216;83;20260;-54
2021/03/25 09:40:22;;;;;;;;;;;;;;;6.49;54.91;100587.09;1702635;82;20209;-55
2021/03/25 09:43:43;;;;;;;;;;;;;;;6.34;55.19;100582.62;1701137;82;20209;-55
2021/03/25 09:46:51;;;;;;;;;;;;;;;6.35;55.43;100580.24;1695454;83;20220;-54
2021/03/25 09:50:05;;;;;;;;;;;;;;;6.38;55.62;100585.87;1699810;82;20244;-54
2021/03/25 09:53:20;;;;;;;;;;;;;;;6.47;55.62;100585.87;1702471;84;20304;-54
2021/03/25 09:56:40;;;;;;;;;;;;;;;6.62;55.41;100576.28;1702290;84;20629;-54
2021/03/25 10:00:07;;;;;;;;;;;;;;;6.62;55.00;100576.77;1702523;83;20311;-55
2021/03/25 10:03:15;;;;;;;;;;;;;;;6.58;54.99;100581.63;1697217;84;20220;-54
2021/03/25 10:06:55;;;;;;;;;;;;;;;6.53;54.94;100577.66;1698783;84;20219;-54
2021/03/25 10:10:02;;;;;;;;;;;;;;;6.58;55.42;100581.63;1699289;84;20569;-55
2021/03/25 10:13:17;;;;;;;;;;;;;;;6.72;55.07;100575.77;1631195;86;20219;-54
2021/03/25 10:16:44;;;;;;;;;;;;;;;6.80;55.27;100569.05;1640597;83;20226;-55
2021/03/25 10:19:53;;;;;;;;;;;;;;;6.99;54.49;100559.47;1661535;85;20230;-54
2021/03/25 10:23:02;;;;;;;;;;;;;;;7.10;54.31;100552.48;1660004;85;20222;-53
2021/03/25 10:26:13;;;;;;;;;;;;;;;7.26;54.08;100553.22;1671774;83;20220;-54
2021/03/25 10:29:24;;;;;;;;;;;;;;;7.38;54.13;100555.59;1742989;82;20217;-54
2021/03/25 10:32:36;;;;;;;;;;;;;;;7.56;53.47;100563.81;1741620;82;20569;-54
2021/03/25 10:35:44;;;;;;;;;;;;;;;7.64;53.73;100556.57;1756892;80;20305;-54
2021/03/25 10:39:04;;;;;;;;;;;;;;;7.89;53.25;100552.75;1773185;80;20231;-54
2021/03/25 10:42:33;;;;;;;;;;;;;;;7.94;52.73;100549.06;1773095;81;20282;-55
2021/03/25 10:45:55;;;;;;;;;;;;;;;7.90;52.75;100548.51;1772971;81;20309;-54
2021/03/25 10:49:03;;;;;;;;;;;;;;;7.93;52.87;100550.09;1772429;80;20298;-54
2021/03/25 10:52:07;;;;;;;;;;;;;;;8.10;52.81;100551.45;1772527;81;20222;-56
2021/03/25 10:55:15;;;;;;;;;;;;;;;8.26;52.94;100554.87;1756477;80;20215;-54
2021/03/25 10:58:32;;;;;;;;;;;;;;;8.41;52.30;100556.88;1772998;80;20258;-53
2021/03/25 11:01:38;;;;;;;;;;;;;;;8.34;51.91;100551.69;1772696;80;20222;-54
2021/03/25 11:04:44;;;;;;;;;;;;;;;8.36;52.53;100546.06;1772763;80;20352;-53
2021/03/25 11:07:50;;;;;;;;;;;;;;;8.53;52.48;100549.30;1754188;80;20613;-54
2021/03/25 11:10:57;;;;;;;;;;;;;;;8.58;52.26;100546.92;1747727;82;20218;-53
2021/03/25 11:14:03;;;;;;;;;;;;;;;8.67;52.07;100548.19;1741384;81;20232;-55
2021/03/25 11:17:12;;;;;;;;;;;;;;;8.71;52.09;100547.38;1742608;80;20268;-55
2021/03/25 11:20:20;;;;;;;;;;;;;;;8.78;52.10;100549.82;1743208;82;20193;-55
2021/03/25 11:23:30;;;;;;;;;;;;;;;8.89;52.09;100553.65;1722836;82;20217;-54
2021/03/25 11:26:35;;;;;;;;;;;;;;;8.82;51.87;100555.30;1734816;82;20211;-55
2021/03/25 11:29:43;;;;;;;;;;;;;;;8.70;51.58;100544.30;1739208;82;20206;-55
2021/03/25 11:32:49;;;;;;;;;;;;;;;8.42;52.28;100538.64;1739358;82;20279;-55
2021/03/25 11:35:53;;;;;;;;;;;;;;;8.29;53.11;100540.91;1755723;81;20214;-54
2021/03/25 11:38:58;;;;;;;;;;;;;;;8.30;53.35;100538.52;1772204;81;20210;-55
2021/03/25 11:42:07;;;;;;;;;;;;;;;8.40;52.97;100533.84;1756272;81;20298;-55
2021/03/25 11:45:13;;;;;;;;;;;;;;;8.38;53.03;100531.28;1710933;83;20271;-55
2021/03/25 11:48:33;;;;;;;;;;;;;;;8.43;52.85;100517.16;1729015;82;20251;-56
2021/03/25 11:51:42;;;;;;;;;;;;;;;8.41;52.89;100507.77;1737643;81;20221;-55
2021/03/25 11:54:48;;;;;;;;;;;;;;;8.40;53.25;100507.93;1739997;82;20208;-54
2021/03/25 11:57:51;;;;;;;;;;;;;;;8.55;53.22;100511.78;1739271;82;20311;-56
2021/03/25 12:01:13;;;;;;;;;;;;;;;8.72;52.88;100504.08;1738122;82;20224;-54
2021/03/25 12:04:30;;;;;;;;;;;;;;;8.92;52.67;100512.38;1738325;82;20207;-54
2021/03/25 12:07:34;;;;;;;;;;;;;;;9.16;52.10;100504.81;1739224;82;20707;-55
2021/03/25 12:10:40;;;;;;;;;;;;;;;9.27;51.95;100507.25;1739386;82;20620;-55
2021/03/25 12:13:45;;;;;;;;;;;;;;;9.30;51.83;100520.08;1739318;82;20236;-55
2021/03/25 12:16:52;;;;;;;;;;;;;;;9.38;52.06;100510.55;1739585;82;20207;-57
2021/03/25 12:19:59;;;;;;;;;;;;;;;9.59;51.65;100510.97;1706500;81;20534;-55
2021/03/25 12:23:10;;;;;;;;;;;;;;;9.68;51.27;100514.05;1738649;81;20216;-55
2021/03/25 12:26:19;;;;;;;;;;;;;;;9.77;50.70;100507.58;1696272;83;20200;-55
2021/03/25 12:29:24;;;;;;;;;;;;;;;9.82;50.58;100510.67;1701294;83;20596;-55
2021/03/25 12:32:32;;;;;;;;;;;;;;;9.81;50.67;100506.73;1689287;83;20247;-54
2021/03/25 12:35:39;;;;;;;;;;;;;;;9.85;50.77;100504.86;1743552;82;20275;-56
2021/03/25 12:38:45;;;;;;;;;;;;;;;9.92;50.57;100517.34;1738681;82;20348;-57
2021/03/25 12:41:51;;;;;;;;;;;;;;;9.92;50.74;100513.25;1702461;82;20231;-56
2021/03/25 12:44:56;;;;;;;;;;;;;;;9.82;50.46;100509.30;1666198;84;20380;-57
2021/03/25 12:48:01;;;;;;;;;;;;;;;9.75;50.85;100510.98;1686347;85;20250;-56
2021/03/25 12:51:08;;;;;;;;;;;;;;;9.78;51.00;100510.67;1686766;83;20232;-57
2021/03/25 12:54:13;;;;;;;;;;;;;;;9.88;50.81;100514.09;1668398;84;20273;-56
2021/03/25 12:57:18;;;;;;;;;;;;;;;9.98;50.76;100509.33;1685136;83;20256;-55
2021/03/25 13:00:35;;;;;;;;;;;;;;;9.98;50.68;100510.70;1683638;83;20217;-56
2021/03/25 13:03:42;;;;;;;;;;;;;;;9.93;50.99;100511.71;1699385;83;20254;-55
2021/03/25 13:06:48;;;;;;;;;;;;;;;9.82;51.29;100501.59;1704133;82;20240;-58
2021/03/25 13:09:53;;;;;;;;;;;;;;;9.65;51.43;100517.63;1702744;83;20227;-56
2021/03/25 13:12:57;;;;;;;;;;;;;;;9.49;51.45;100514.34;1727406;82;20637;-56
2021/03/25 13:16:04;;;;;;;;;;;;;;;9.31;51.96;100521.77;1695269;83;20807;-55
2021/03/25 13:19:09;;;;;;;;;;;;;;;9.20;52.79;100508.41;1718655;82;20328;-54
2021/03/25 13:22:13;;;;;;;;;;;;;;;9.29;53.20;100508.81;1722992;82;20579;-57
2021/03/25 13:25:22;;;;;;;;;;;;;;;9.38;52.63;100511.05;1746499;82;20216;-57
2021/03/25 13:28:28;;;;;;;;;;;;;;;9.39;52.64;100517.70;1754947;79;20232;-57
2021/03/25 13:31:39;;;;;;;;;;;;;;;9.40;52.56;100515.34;1742939;81;20201;-59
2021/03/25 13:34:47;;;;;;;;;;;;;;;9.41;52.36;100517.55;1751118;81;20207;-56
2021/03/25 13:37:53;;;;;;;;;;;;;;;9.38;52.57;100514.64;1741575;82;20231;-58
2021/03/25 13:41:01;;;;;;;;;;;;;;;9.44;52.60;100507.14;1747972;82;20657;-55
2021/03/25 13:44:09;;;;;;;;;;;;;;;9.42;52.87;100502.34;1752655;82;20211;-55
2021/03/25 13:47:15;;;;;;;;;;;;;;;9.41;52.91;100503.38;1745394;82;20243;-55
2021/03/25 13:50:24;;;;;;;;;;;;;;;9.39;52.98;100508.14;1720522;82;20221;-56
2021/03/25 13:53:29;;;;;;;;;;;;;;;9.37;52.88;100506.61;1720798;83;20229;-55
2021/03/25 13:56:34;;;;;;;;;;;;;;;9.29;52.85;100517.50;1723610;83;20220;-57
2021/03/25 13:59:42;;;;;;;;;;;;;;;9.17;53.20;100522.39;1732678;82;20601;-56
2021/03/25 14:02:46;;;;;;;;;;;;;;;9.13;53.40;100518.80;1744961;82;20252;-56
2021/03/25 14:05:51;;;;;;;;;;;;;;;9.05;53.63;100527.28;1740819;82;20244;-56
2021/03/25 14:08:54;;;;;;;;;;;;;;;9.05;53.88;100516.89;1742775;82;20264;-54
2021/03/25 14:11:59;;;;;;;;;;;;;;;9.06;53.64;100515.86;1751013;81;20199;-54
2021/03/25 14:15:04;;;;;;;;;;;;;;;9.00;53.84;100521.97;1746132;81;20250;-55
2021/03/25 14:18:10;;;;;;;;;;;;;;;8.98;53.89;100528.97;1749963;81;20223;-54
2021/03/25 14:21:18;;;;;;;;;;;;;;;8.96;54.05;100528.27;1736814;81;20187;-56
2021/03/25 14:24:25;;;;;;;;;;;;;;;8.97;54.18;100534.59;1734985;82;20204;-54
2021/03/25 14:27:29;;;;;;;;;;;;;;;8.97;54.27;100535.42;1732476;82;20241;-54
2021/03/25 14:30:35;;;;;;;;;;;;;;;8.93;53.86;100538.14;1730549;81;20748;-54
2021/03/25 14:33:39;;;;;;;;;;;;;;;8.86;53.99;100541.16;1733194;82;20556;-56
2021/03/25 14:36:45;;;;;;;;;;;;;;;8.81;54.33;100549.50;1729710;82;20234;-55
2021/03/25 14:39:52;;;;;;;;;;;;;;;8.73;54.68;100538.52;1691028;83;20252;-55
2021/03/25 14:42:57;;;;;;;;;;;;;;;8.67;55.11;100545.99;1681801;83;20223;-55
2021/03/25 14:46:03;;;;;;;;;;;;;;;8.73;55.19;100545.34;1699974;83;20306;-55
2021/03/25 14:49:14;;;;;;;;;;;;;;;8.72;55.31;100539.55;1692138;84;20214;-54
2021/03/25 14:52:19;;;;;;;;;;;;;;;8.72;55.47;100558.66;1731158;82;20204;-54
2021/03/25 14:55:23;;;;;;;;;;;;;;;8.69;55.40;100558.45;1735753;82;20215;-55
2021/03/25 14:58:28;;;;;;;;;;;;;;;8.67;55.59;100555.02;1735685;82;20200;-55
2021/03/25 15:01:31;;;;;;;;;;;;;;;8.69;55.41;100567.13;1733800;83;20229;-55
2021/03/25 15:04:36;;;;;;;;;;;;;;;8.63;55.61;100559.59;1734293;82;20268;-54
2021/03/25 15:07:41;;;;;;;;;;;;;;;8.60;55.83;100569.46;1672446;85;20607;-54
2021/03/25 15:10:46;;;;;;;;;;;;;;;8.55;56.09;100559.03;1695794;83;20585;-54
2021/03/25 15:13:49;;;;;;;;;;;;;;;8.54;56.09;100570.10;1737289;82;20219;-55
2021/03/25 15:16:55;;;;;;;;;;;;;;;8.55;56.22;100559.52;1738623;82;20204;-54
2021/03/25 15:20:02;;;;;;;;;;;;;;;8.51;56.23;100566.33;1739283;82;20223;-54
2021/03/25 15:23:07;;;;;;;;;;;;;;;8.51;56.36;100564.97;1736955;81;20552;-54
2021/03/25 15:26:17;;;;;;;;;;;;;;;8.49;56.37;100565.63;1737715;82;20576;-54
2021/03/25 15:29:23;;;;;;;;;;;;;;;8.51;56.41;100571.78;1698762;84;20216;-56
2021/03/25 15:32:27;;;;;;;;;;;;;;;8.47;56.37;100567.14;1739092;82;20579;-55
2021/03/25 15:35:38;;;;;;;;;;;;;;;8.41;56.43;100572.37;1710224;84;20210;-55
2021/03/25 15:38:44;;;;;;;;;;;;;;;8.35;56.57;100583.42;1710493;84;20207;-55
2021/03/25 15:41:48;;;;;;;;;;;;;;;8.28;56.73;100576.86;1710543;84;20210;-55
2021/03/25 15:44:52;;;;;;;;;;;;;;;8.22;57.00;100580.69;1729785;82;20211;-54
2021/03/25 15:47:56;;;;;;;;;;;;;;;8.23;57.16;100589.27;1735262;82;20220;-55
2021/03/25 15:51:02;;;;;;;;;;;;;;;8.20;57.25;100582.70;1729750;82;20212;-55
2021/03/25 15:54:08;;;;;;;;;;;;;;;8.19;57.36;100585.09;1738877;82;20275;-55
2021/03/25 15:57:13;;;;;;;;;;;;;;;8.17;57.43;100598.02;1737658;82;20514;-55
2021/03/25 16:00:19;;;;;;;;;;;;;;;8.17;57.52;100596.16;1738124;82;20227;-55
2021/03/25 16:03:23;;;;;;;;;;;;;;;8.21;57.52;100596.70;1727548;82;20258;-55
2021/03/25 16:06:28;;;;;;;;;;;;;;;8.22;57.66;100591.59;1737501;82;20209;-55
2021/03/25 16:09:32;;;;;;;;;;;;;;;8.25;57.66;100594.04;1700977;83;20284;-55
2021/03/25 16:12:38;;;;;;;;;;;;;;;8.23;57.64;100592.00;1673726;85;20222;-55
2021/03/25 16:15:47;;;;;;;;;;;;;;;8.21;57.78;100593.48;1696907;83;20254;-56
2021/03/25 16:18:55;;;;;;;;;;;;;;;8.22;57.86;100602.50;1698203;84;20532;-54
2021/03/25 16:22:00;;;;;;;;;;;;;;;8.24;57.95;100596.43;1733918;82;20643;-54
2021/03/25 16:25:05;;;;;;;;;;;;;;;8.30;57.86;100601.25;1744864;81;20576;-55
2021/03/25 16:28:10;;;;;;;;;;;;;;;8.27;57.74;100606.52;1737621;81;20557;-53
2021/03/25 16:31:15;;;;;;;;;;;;;;;8.26;57.75;100609.41;1746934;82;20210;-56